createdAt,value
2018-05-14T00:01:33.411Z,15.40
2018-05-14T00:04:01.831Z,15.40
2018-05-14T00:06:30.695Z,15.40
2018-05-14T00:08:59.048Z,15.40
2018-05-14T00:11:27.499Z,15.40
2018-05-14T00:13:55.898Z,15.40
2018-05-14T00:16:24.250Z,15.40
2018-05-14T00:18:52.595Z,15.40
2018-05-14T00:21:20.955Z,15.30
2018-05-14T00:23:50.095Z,15.30
2018-05-14T00:26:19.411Z,15.20
2018-05-14T00:28:47.787Z,15.20
2018-05-14T00:31:16.191Z,15.20
2018-05-14T00:33:44.572Z,15.20
2018-05-14T00:36:15.427Z,15.20
2018-05-14T00:38:44.396Z,15.20
2018-05-14T00:41:12.758Z,15.20
2018-05-14T00:43:41.900Z,15.10
2018-05-14T00:46:10.675Z,15.10
2018-05-14T00:48:39.041Z,15.00
2018-05-14T00:51:07.482Z,15.00
2018-05-14T00:53:36.623Z,14.90
2018-05-14T00:56:04.978Z,14.90
2018-05-14T00:58:34.124Z,14.80
2018-05-14T01:01:02.535Z,14.70
2018-05-14T01:03:30.987Z,14.70
2018-05-14T01:06:00.283Z,14.70
2018-05-14T01:08:28.692Z,14.70
2018-05-14T01:10:57.095Z,14.70
2018-05-14T01:13:25.658Z,14.60
2018-05-14T01:15:54.855Z,14.60
2018-05-14T01:18:23.400Z,14.60
2018-05-14T01:20:51.878Z,14.60
2018-05-14T01:23:21.004Z,14.50
2018-05-14T01:25:49.525Z,14.50
2018-05-14T01:28:18.039Z,14.50
2018-05-14T01:30:47.506Z,14.50
2018-05-14T01:33:15.898Z,14.40
2018-05-14T01:35:44.344Z,14.40
2018-05-14T01:38:12.779Z,14.40
2018-05-14T01:40:41.313Z,14.30
2018-05-14T01:43:10.464Z,14.20
2018-05-14T01:45:38.904Z,14.20
2018-05-14T01:48:07.436Z,14.20
2018-05-14T01:50:35.799Z,14.20
2018-05-14T01:53:04.719Z,14.20
2018-05-14T01:55:33.279Z,14.10
2018-05-14T01:58:01.635Z,14.20
2018-05-14T02:00:30.863Z,14.00
2018-05-14T02:02:59.246Z,14.00
2018-05-14T02:05:27.813Z,14.00
2018-05-14T02:07:56.149Z,14.00
2018-05-14T02:10:24.547Z,13.90
2018-05-14T02:12:52.962Z,13.90
2018-05-14T02:15:22.107Z,13.90
2018-05-14T02:17:50.486Z,13.90
2018-05-14T02:20:18.840Z,13.80
2018-05-14T02:22:47.210Z,13.80
2018-05-14T02:25:15.648Z,13.80
2018-05-14T02:27:44.059Z,13.80
2018-05-14T02:30:12.463Z,13.80
2018-05-14T02:32:41.664Z,13.80
2018-05-14T02:35:10.811Z,13.80
2018-05-14T02:37:39.179Z,13.80
2018-05-14T02:40:08.503Z,13.80
2018-05-14T02:42:36.886Z,13.80
2018-05-14T02:45:05.250Z,13.80
2018-05-14T02:47:33.671Z,13.70
2018-05-14T02:50:02.210Z,13.70
2018-05-14T02:52:31.319Z,13.70
2018-05-14T02:55:01.565Z,13.70
2018-05-14T02:57:30.750Z,13.70
2018-05-14T02:59:59.149Z,13.70
2018-05-14T03:02:27.535Z,13.70
2018-05-14T03:04:55.943Z,13.70
2018-05-14T03:07:24.464Z,13.80
2018-05-14T03:09:53.591Z,13.80
2018-05-14T03:12:22.024Z,13.80
2018-05-14T03:14:50.375Z,13.90
2018-05-14T03:17:18.907Z,13.90
2018-05-14T03:19:47.291Z,14.00
2018-05-14T03:22:15.674Z,14.00
2018-05-14T03:24:44.228Z,14.10
2018-05-14T03:27:12.773Z,14.10
2018-05-14T03:29:41.170Z,14.20
2018-05-14T03:32:10.495Z,14.30
2018-05-14T03:34:39.810Z,14.30
2018-05-14T03:37:08.167Z,14.40
2018-05-14T03:39:36.648Z,14.50
2018-05-14T03:42:05.015Z,14.50
2018-05-14T03:44:33.403Z,14.60
2018-05-14T03:47:01.907Z,14.60
2018-05-14T03:49:30.319Z,14.70
2018-05-14T03:51:58.723Z,14.80
2018-05-14T03:54:27.075Z,14.80
2018-05-14T03:56:55.636Z,14.90
2018-05-14T03:59:35.975Z,15.00
2018-05-14T04:02:27.044Z,15.20
2018-05-14T04:05:07.159Z,15.20
2018-05-14T04:07:35.528Z,15.30
2018-05-14T04:10:04.067Z,15.30
2018-05-14T04:12:32.453Z,15.40
2018-05-14T04:15:00.872Z,15.50
2018-05-14T04:17:32.767Z,15.50
2018-05-14T04:20:01.155Z,15.60
2018-05-14T04:22:29.521Z,15.70
2018-05-14T04:24:58.027Z,15.70
2018-05-14T04:27:26.722Z,15.70
2018-05-14T04:29:55.261Z,15.70
2018-05-14T04:32:23.826Z,15.90
2018-05-14T04:34:52.971Z,16.10
2018-05-14T04:37:21.447Z,16.10
2018-05-14T04:39:49.899Z,16.20
2018-05-14T04:42:18.343Z,16.30
2018-05-14T04:44:46.705Z,16.40
2018-05-14T04:47:15.090Z,16.50
2018-05-14T04:49:44.335Z,16.70
2018-05-14T04:52:12.714Z,16.70
2018-05-14T04:54:41.086Z,16.80
2018-05-14T04:57:09.611Z,16.90
2018-05-14T04:59:38.155Z,17.10
2018-05-14T05:02:07.482Z,17.30
2018-05-14T05:04:35.858Z,17.30
2018-05-14T05:07:04.703Z,17.50
2018-05-14T05:09:33.095Z,17.60
2018-05-14T05:12:01.499Z,17.70
2018-05-14T05:14:29.882Z,17.80
2018-05-14T05:16:59.211Z,18.10
2018-05-14T05:19:27.763Z,18.10
2018-05-14T05:21:56.927Z,18.30
2018-05-14T05:24:26.113Z,18.50
2018-05-14T05:26:54.500Z,18.40
2018-05-14T05:29:22.899Z,18.60
2018-05-14T05:31:51.267Z,18.70
2018-05-14T05:34:19.641Z,18.80
2018-05-14T05:36:48.748Z,18.90
2018-05-14T05:39:17.928Z,19.20
2018-05-14T05:41:46.311Z,19.20
2018-05-14T05:44:14.715Z,19.30
2018-05-14T05:46:43.099Z,19.50
2018-05-14T05:49:11.469Z,19.60
2018-05-14T05:51:40.968Z,19.70
2018-05-14T05:54:09.371Z,19.90
2018-05-14T05:56:38.710Z,20.30
2018-05-14T05:59:07.101Z,20.30
2018-05-14T06:01:36.341Z,20.60
2018-05-14T06:04:04.718Z,20.60
2018-05-14T06:06:34.058Z,20.90
2018-05-14T06:09:02.475Z,20.90
2018-05-14T06:11:30.944Z,21.10
2018-05-14T06:13:59.339Z,21.20
2018-05-14T06:16:27.947Z,21.40
2018-05-14T06:18:57.113Z,21.90
2018-05-14T06:21:25.507Z,21.80
2018-05-14T06:24:00.635Z,22.00
2018-05-14T06:26:29.239Z,22.20
2018-05-14T06:28:58.411Z,22.60
2018-05-14T06:31:27.686Z,22.90
2018-05-14T06:33:56.077Z,22.80
2018-05-14T06:36:24.648Z,23.10
2018-05-14T06:38:53.084Z,23.40
2018-05-14T06:41:21.510Z,23.80
2018-05-14T06:43:50.551Z,24.40
2018-05-14T06:46:18.997Z,25.00
2018-05-14T06:48:47.432Z,25.60
2018-05-14T06:51:16.035Z,26.20
2018-05-14T06:53:44.443Z,26.80
2018-05-14T06:56:13.611Z,27.80
2018-05-14T06:58:43.739Z,27.70
2018-05-14T07:01:12.951Z,28.80
2018-05-14T07:03:41.339Z,28.70
2018-05-14T07:06:10.502Z,30.00
2018-05-14T07:08:38.931Z,29.90
2018-05-14T07:11:07.431Z,30.70
2018-05-14T07:13:36.019Z,31.30
2018-05-14T07:16:04.640Z,31.90
2018-05-14T07:18:33.043Z,32.60
2018-05-14T07:21:02.733Z,33.60
2018-05-14T07:23:31.040Z,33.60
2018-05-14T07:25:59.423Z,34.10
2018-05-14T07:28:27.927Z,34.80
2018-05-14T07:30:56.330Z,35.40
2018-05-14T07:33:24.705Z,35.90
2018-05-14T07:35:54.553Z,36.60
2018-05-14T07:38:22.987Z,36.80
2018-05-14T07:40:52.331Z,37.00
2018-05-14T07:43:22.414Z,37.00
2018-05-14T07:45:50.819Z,36.90
2018-05-14T07:48:19.998Z,36.80
2018-05-14T07:50:49.167Z,36.40
2018-05-14T07:53:17.547Z,36.30
2018-05-14T07:55:45.985Z,35.90
2018-05-14T07:58:14.372Z,35.60
2018-05-14T08:00:42.758Z,35.50
2018-05-14T08:03:11.225Z,35.70
2018-05-14T08:05:40.636Z,35.90
2018-05-14T08:08:08.953Z,36.00
2018-05-14T08:10:37.365Z,36.30
2018-05-14T08:13:05.789Z,36.60
2018-05-14T08:15:34.208Z,36.70
2018-05-14T08:18:02.580Z,36.60
2018-05-14T08:20:32.433Z,36.20
2018-05-14T08:23:00.839Z,35.90
2018-05-14T08:25:29.379Z,35.70
2018-05-14T08:27:57.852Z,35.90
2018-05-14T08:30:27.031Z,36.10
2018-05-14T08:32:55.580Z,36.20
2018-05-14T08:35:24.912Z,35.70
2018-05-14T08:37:53.478Z,35.60
2018-05-14T08:40:22.820Z,35.10
2018-05-14T08:42:51.253Z,35.00
2018-05-14T08:45:19.715Z,35.50
2018-05-14T08:47:48.207Z,35.50
2018-05-14T08:50:16.632Z,35.10
2018-05-14T08:52:45.016Z,34.40
2018-05-14T08:55:13.417Z,34.00
2018-05-14T08:57:42.016Z,33.60
2018-05-14T09:00:10.538Z,33.30
2018-05-14T09:02:39.187Z,33.20
2018-05-14T09:05:07.546Z,32.90
2018-05-14T09:07:37.575Z,32.20
2018-05-14T09:10:06.082Z,31.50
2018-05-14T09:12:34.624Z,31.00
2018-05-14T09:15:03.042Z,30.40
2018-05-14T09:17:31.620Z,30.10
2018-05-14T09:20:00.912Z,29.10
2018-05-14T09:22:29.268Z,29.00
2018-05-14T09:24:57.682Z,28.90
2018-05-14T09:27:26.060Z,28.80
2018-05-14T09:29:54.572Z,28.70
2018-05-14T09:32:22.972Z,28.70
2018-05-14T09:34:51.419Z,28.60
2018-05-14T09:37:20.824Z,28.20
2018-05-14T09:39:49.939Z,28.20
2018-05-14T09:42:18.486Z,28.20
2018-05-14T09:44:47.642Z,28.40
2018-05-14T09:47:16.038Z,28.30
2018-05-14T09:49:44.389Z,28.40
2018-05-14T09:52:13.711Z,28.30
2018-05-14T09:54:42.115Z,28.30
2018-05-14T09:57:12.794Z,28.50
2018-05-14T09:59:41.193Z,28.70
2018-05-14T10:02:09.595Z,28.60
2018-05-14T10:04:37.991Z,28.30
2018-05-14T10:07:06.348Z,28.50
2018-05-14T10:09:34.724Z,28.40
2018-05-14T10:12:03.098Z,28.40
2018-05-14T10:14:33.139Z,28.30
2018-05-14T10:17:01.603Z,28.30
2018-05-14T10:19:30.152Z,28.20
2018-05-14T10:21:59.316Z,27.90
2018-05-14T10:24:27.655Z,27.90
2018-05-14T10:26:56.207Z,28.00
2018-05-14T10:29:24.631Z,28.20
2018-05-14T10:31:52.995Z,28.30
2018-05-14T10:34:22.348Z,28.30
2018-05-14T10:36:50.774Z,28.30
2018-05-14T10:39:19.243Z,28.40
2018-05-14T10:41:48.443Z,28.10
2018-05-14T10:44:16.795Z,28.20
2018-05-14T10:46:45.384Z,27.80
2018-05-14T10:49:14.547Z,27.80
2018-05-14T10:51:43.037Z,27.80
2018-05-14T10:54:11.631Z,27.70
2018-05-14T10:56:40.011Z,27.70
2018-05-14T10:59:08.371Z,27.70
2018-05-14T11:01:36.923Z,27.70
2018-05-14T11:04:05.294Z,27.60
2018-05-14T11:06:33.675Z,27.70
2018-05-14T11:09:02.813Z,27.90
2018-05-14T11:11:31.363Z,27.90
2018-05-14T11:14:00.505Z,27.90
2018-05-14T11:16:29.791Z,27.90
2018-05-14T11:18:58.154Z,27.80
2018-05-14T11:21:27.327Z,27.90
2018-05-14T11:23:56.595Z,27.90
2018-05-14T11:26:24.956Z,27.90
2018-05-14T11:28:53.327Z,28.00
2018-05-14T11:31:22.440Z,27.90
2018-05-14T11:33:50.883Z,27.90
2018-05-14T11:36:19.298Z,28.00
2018-05-14T11:38:49.439Z,27.90
2018-05-14T11:41:18.779Z,28.00
2018-05-14T11:43:47.143Z,28.00
2018-05-14T11:46:15.575Z,28.00
2018-05-14T11:48:43.937Z,27.90
2018-05-14T11:51:12.431Z,27.80
2018-05-14T11:53:40.814Z,27.60
2018-05-14T11:56:09.967Z,27.70
2018-05-14T11:58:39.078Z,27.80
2018-05-14T12:01:07.767Z,27.70
2018-05-14T12:03:36.163Z,27.80
2018-05-14T12:06:04.564Z,27.80
2018-05-14T12:08:32.929Z,27.80
2018-05-14T12:11:01.306Z,27.80
2018-05-14T12:13:29.723Z,27.60
2018-05-14T12:15:58.220Z,27.70
2018-05-14T12:18:26.518Z,27.80
2018-05-14T12:20:55.650Z,28.00
2018-05-14T12:23:24.015Z,27.90
2018-05-14T12:25:53.178Z,27.80
2018-05-14T12:28:22.436Z,27.90
2018-05-14T12:30:51.634Z,27.80
2018-05-14T12:33:20.078Z,27.80
2018-05-14T12:35:48.619Z,27.60
2018-05-14T12:38:17.051Z,27.30
2018-05-14T12:40:46.347Z,27.20
2018-05-14T12:43:14.898Z,27.20
2018-05-14T12:45:44.193Z,27.20
2018-05-14T12:48:12.559Z,27.20
2018-05-14T12:50:40.963Z,27.10
2018-05-14T12:53:09.298Z,27.20
2018-05-14T12:55:38.063Z,27.20
2018-05-14T12:58:06.471Z,27.30
2018-05-14T13:00:36.551Z,27.60
2018-05-14T13:03:06.707Z,27.50
2018-05-14T13:05:36.782Z,27.40
2018-05-14T13:08:06.136Z,27.50
2018-05-14T13:10:34.499Z,27.50
2018-05-14T13:13:03.052Z,27.60
2018-05-14T13:15:31.509Z,27.60
2018-05-14T13:17:59.951Z,27.50
2018-05-14T13:20:28.483Z,27.50
2018-05-14T13:22:56.967Z,27.70
2018-05-14T13:25:26.801Z,27.80
2018-05-14T13:27:55.335Z,27.50
2018-05-14T13:30:23.769Z,27.50
2018-05-14T13:32:52.370Z,27.50
2018-05-14T13:35:20.840Z,27.20
2018-05-14T13:37:49.449Z,27.00
2018-05-14T13:40:18.680Z,26.70
2018-05-14T13:42:47.331Z,26.60
2018-05-14T13:45:15.635Z,26.60
2018-05-14T13:47:44.023Z,26.40
2018-05-14T13:50:12.397Z,26.30
2018-05-14T13:52:41.699Z,26.60
2018-05-14T13:55:10.291Z,26.60
2018-05-14T13:57:38.860Z,26.90
2018-05-14T14:00:07.248Z,27.10
2018-05-14T14:02:35.643Z,27.20
2018-05-14T14:05:05.818Z,27.30
2018-05-14T14:07:34.370Z,27.30
2018-05-14T14:10:02.731Z,27.50
2018-05-14T14:12:31.262Z,27.60
2018-05-14T14:14:59.670Z,27.50
2018-05-14T14:17:28.186Z,27.40
2018-05-14T14:19:56.719Z,27.30
2018-05-14T14:22:25.100Z,27.00
2018-05-14T14:24:53.483Z,26.80
2018-05-14T14:27:21.958Z,26.70
2018-05-14T14:29:50.535Z,26.60
2018-05-14T14:32:18.927Z,26.40
2018-05-14T14:34:47.272Z,26.30
2018-05-14T14:37:15.894Z,26.30
2018-05-14T14:39:44.254Z,26.30
2018-05-14T14:42:13.371Z,26.30
2018-05-14T14:44:43.500Z,26.20
2018-05-14T14:47:12.827Z,26.20
2018-05-14T14:49:41.212Z,26.20
2018-05-14T14:52:09.796Z,26.00
2018-05-14T14:54:39.275Z,26.00
2018-05-14T14:57:07.654Z,26.00
2018-05-14T14:59:36.015Z,26.10
2018-05-14T15:02:04.579Z,26.20
2018-05-14T15:04:32.936Z,26.30
2018-05-14T15:07:01.793Z,26.40
2018-05-14T15:09:30.131Z,26.50
2018-05-14T15:14:26.056Z,26.60
2018-05-14T15:16:54.416Z,26.60
2018-05-14T15:19:22.810Z,26.40
2018-05-14T15:21:52.116Z,26.70
2018-05-14T15:24:20.507Z,26.60
2018-05-14T15:26:48.884Z,26.90
2018-05-14T15:29:17.260Z,26.90
2018-05-14T15:31:45.824Z,26.90
2018-05-14T15:34:14.208Z,27.00
2018-05-14T15:36:42.672Z,27.10
2018-05-14T15:39:12.459Z,27.20
2018-05-14T15:41:40.852Z,27.30
2018-05-14T15:44:09.392Z,27.40
2018-05-14T15:46:38.516Z,27.40
2018-05-14T15:49:06.895Z,27.40
2018-05-14T15:51:37.018Z,27.40
2018-05-14T15:54:05.436Z,27.40
2018-05-14T15:56:33.825Z,27.30
2018-05-14T15:59:02.213Z,27.10
2018-05-14T16:01:30.766Z,27.10
2018-05-14T16:03:59.139Z,26.90
2018-05-14T16:06:28.251Z,26.60
2018-05-14T16:08:56.628Z,26.60
2018-05-14T16:11:25.095Z,26.70
2018-05-14T16:13:54.211Z,26.60
2018-05-14T16:16:22.598Z,26.60
2018-05-14T16:18:50.976Z,26.50
2018-05-14T16:21:19.341Z,26.40
2018-05-14T16:23:48.487Z,26.20
2018-05-14T16:26:16.843Z,26.20
2018-05-14T16:28:45.215Z,26.20
2018-05-14T16:31:14.334Z,26.40
2018-05-14T16:33:42.699Z,26.40
2018-05-14T16:36:11.882Z,26.40
2018-05-14T16:38:41.019Z,26.30
2018-05-14T16:41:09.443Z,26.30
2018-05-14T16:43:38.292Z,26.10
2018-05-14T16:46:06.656Z,26.00
2018-05-14T16:48:35.083Z,25.90
2018-05-14T16:51:03.451Z,25.90
2018-05-14T16:53:31.815Z,25.80
2018-05-14T16:56:00.403Z,25.80
2018-05-14T16:58:29.516Z,26.00
2018-05-14T17:00:57.886Z,25.90
2018-05-14T17:03:26.280Z,26.00
2018-05-14T17:05:54.668Z,25.90
2018-05-14T17:08:23.124Z,25.90
2018-05-14T17:10:51.519Z,26.00
2018-05-14T17:13:19.904Z,26.00
2018-05-14T17:15:48.490Z,26.00
2018-05-14T17:18:17.004Z,26.00
2018-05-14T17:20:46.301Z,26.00
2018-05-14T17:23:14.687Z,25.90
2018-05-14T17:25:43.994Z,25.80
2018-05-14T17:28:13.299Z,25.80
2018-05-14T17:30:41.770Z,25.80
2018-05-14T17:33:10.318Z,25.70
2018-05-14T17:35:39.822Z,25.70
2018-05-14T17:38:08.276Z,25.70
2018-05-14T17:40:36.623Z,25.70
2018-05-14T17:43:05.772Z,25.60
2018-05-14T17:45:34.279Z,25.60
2018-05-14T17:48:02.867Z,25.60
2018-05-14T17:50:31.282Z,25.50
2018-05-14T17:53:00.411Z,25.30
2018-05-14T17:55:28.791Z,25.40
2018-05-14T17:57:58.106Z,25.40
2018-05-14T18:00:27.429Z,25.40
2018-05-14T18:02:55.988Z,25.30
2018-05-14T18:05:24.350Z,25.30
2018-05-14T18:07:52.786Z,25.30
2018-05-14T18:10:21.199Z,25.30
2018-05-14T18:12:49.736Z,25.30
2018-05-14T18:15:18.114Z,25.20
2018-05-14T18:17:46.567Z,25.10
2018-05-14T18:20:20.517Z,25.10
2018-05-14T18:22:48.912Z,25.10
2018-05-14T18:25:23.007Z,25.00
2018-05-14T18:27:57.046Z,25.00
2018-05-14T18:30:28.379Z,25.00
2018-05-14T18:33:02.491Z,24.80
2018-05-14T18:35:36.687Z,24.80
2018-05-14T18:38:05.063Z,24.80
2018-05-14T18:40:33.591Z,24.60
2018-05-14T18:43:01.975Z,24.40
2018-05-14T18:45:30.419Z,24.40
2018-05-14T18:47:59.547Z,24.20
2018-05-14T18:50:28.847Z,24.20
2018-05-14T18:52:57.238Z,24.10
2018-05-14T18:55:25.599Z,24.10
2018-05-14T18:57:54.132Z,24.00
2018-05-14T19:00:22.543Z,23.90
2018-05-14T19:02:50.916Z,23.80
2018-05-14T19:05:20.102Z,23.60
2018-05-14T19:07:48.643Z,23.60
2018-05-14T19:10:22.782Z,23.40
2018-05-14T19:12:51.160Z,23.30
2018-05-14T19:15:25.142Z,23.20
2018-05-14T19:17:59.108Z,23.00
2018-05-14T19:20:27.640Z,22.90
2018-05-14T19:23:02.497Z,22.60
2018-05-14T19:25:30.863Z,22.60
2018-05-14T19:28:05.559Z,22.30
2018-05-14T19:30:33.995Z,22.30
2018-05-14T19:33:02.383Z,22.20
2018-05-14T19:35:36.387Z,22.00
2018-05-14T19:38:05.692Z,21.70
2018-05-14T19:40:39.815Z,21.70
2018-05-14T19:43:08.167Z,21.60
2018-05-14T19:45:36.579Z,21.50
2018-05-14T19:48:05.900Z,21.10
2018-05-14T19:50:34.328Z,21.10
2018-05-14T19:53:03.500Z,20.80
2018-05-14T19:55:32.052Z,20.80
2018-05-14T19:58:00.467Z,20.60
2018-05-14T20:00:29.004Z,20.50
2018-05-14T20:02:58.151Z,20.20
2018-05-14T20:05:26.535Z,20.20
2018-05-14T20:07:55.043Z,20.10
2018-05-14T20:10:24.212Z,19.80
2018-05-14T20:12:52.684Z,19.80
2018-05-14T20:15:21.815Z,19.60
2018-05-14T20:17:50.188Z,19.60
2018-05-14T20:20:18.727Z,19.50
2018-05-14T20:22:47.774Z,19.40
2018-05-14T20:25:16.167Z,19.30
2018-05-14T20:27:44.527Z,19.20
2018-05-14T20:30:12.951Z,19.10
2018-05-14T20:32:41.315Z,18.90
2018-05-14T20:35:09.703Z,18.80
2018-05-14T20:37:38.115Z,18.70
2018-05-14T20:40:06.539Z,18.50
2018-05-14T20:42:35.035Z,18.40
2018-05-14T20:45:03.416Z,18.30
2018-05-14T20:47:31.776Z,18.30
2018-05-14T20:50:01.003Z,18.10
2018-05-14T20:52:30.350Z,18.10
2018-05-14T20:54:58.719Z,18.10
2018-05-14T20:57:27.079Z,18.00
2018-05-14T20:59:56.303Z,18.00
2018-05-14T21:02:24.695Z,17.90
2018-05-14T21:04:53.073Z,17.90
2018-05-14T21:07:21.463Z,17.90
2018-05-14T21:09:49.843Z,17.80
2018-05-14T21:12:18.207Z,17.80
2018-05-14T21:14:46.637Z,17.70
2018-05-14T21:17:15.015Z,17.70
2018-05-14T21:19:44.170Z,17.50
2018-05-14T21:22:13.487Z,17.50
2018-05-14T21:24:41.870Z,17.50
2018-05-14T21:27:11.191Z,17.30
2018-05-14T21:29:39.591Z,17.30
2018-05-14T21:32:07.954Z,17.30
2018-05-14T21:34:36.319Z,17.20
2018-05-14T21:37:04.757Z,17.10
2018-05-14T21:39:33.891Z,17.00
2018-05-14T21:42:02.307Z,17.00
2018-05-14T21:44:30.693Z,16.90
2018-05-14T21:46:59.054Z,16.80
2018-05-14T21:49:27.451Z,16.80
2018-05-14T21:51:55.822Z,16.70
2018-05-14T21:54:24.259Z,16.60
2018-05-14T21:56:52.671Z,16.60
2018-05-14T21:59:21.064Z,16.50
2018-05-14T22:01:51.156Z,16.40
2018-05-14T22:04:20.310Z,16.40
2018-05-14T22:06:53.126Z,16.30
2018-05-14T22:09:21.518Z,16.30
2018-05-14T22:11:49.932Z,16.30
2018-05-14T22:14:18.367Z,16.20
2018-05-14T22:16:46.751Z,16.20
2018-05-14T22:19:15.117Z,16.20
2018-05-14T22:21:43.661Z,16.10
2018-05-14T22:24:12.078Z,16.10
2018-05-14T22:26:40.572Z,16.10
2018-05-14T22:29:08.919Z,16.00
2018-05-14T22:31:38.077Z,16.00
2018-05-14T22:34:06.499Z,16.00
2018-05-14T22:36:35.634Z,16.00
2018-05-14T22:39:04.018Z,16.00
2018-05-14T22:41:33.388Z,16.00
2018-05-14T22:44:02.534Z,16.00
2018-05-14T22:46:30.962Z,15.90
2018-05-14T22:48:59.373Z,15.90
2018-05-14T22:51:27.808Z,16.00
2018-05-14T22:53:56.186Z,16.00
2018-05-14T22:56:24.589Z,16.00
2018-05-14T22:58:53.029Z,16.00
2018-05-14T23:01:21.473Z,16.00
2018-05-14T23:03:49.845Z,16.00
2018-05-14T23:06:18.378Z,15.90
2018-05-14T23:08:46.790Z,15.90
2018-05-14T23:11:15.261Z,15.80
2018-05-14T23:13:43.631Z,15.80
2018-05-14T23:16:12.109Z,15.70
2018-05-14T23:18:40.501Z,15.70
2018-05-14T23:21:08.925Z,15.70
2018-05-14T23:23:37.297Z,15.60
2018-05-14T23:26:05.892Z,15.60
2018-05-14T23:28:34.268Z,15.50
2018-05-14T23:31:02.661Z,15.40
2018-05-14T23:33:31.081Z,15.40
2018-05-14T23:35:59.478Z,15.30
2018-05-14T23:38:27.918Z,15.30
2018-05-14T23:40:56.416Z,15.20
2018-05-14T23:43:25.585Z,15.10
2018-05-14T23:45:54.204Z,15.10
2018-05-14T23:48:23.370Z,15.00
2018-05-14T23:50:51.788Z,15.00
2018-05-14T23:53:20.228Z,15.00
2018-05-14T23:55:48.757Z,15.00
2018-05-14T23:58:17.153Z,14.90
